sensor_id;sensor_type;location;lat;lon;timestamp;P1;durP1;ratioP1;P2;durP2;ratioP2
45650;SDS011;31365;48.858;8.530;2023-02-01T00:01:28;2.05;;;1.65;;
45650;SDS011;31365;48.858;8.530;2023-02-01T00:03:58;2.10;;;1.85;;
45650;SDS011;31365;48.858;8.530;2023-02-01T00:06:26;2.05;;;1.83;;
45650;SDS011;31365;48.858;8.530;2023-02-01T00:08:55;2.30;;;1.83;;
45650;SDS011;31365;48.858;8.530;2023-02-01T00:11:23;2.00;;;1.80;;
45650;SDS011;31365;48.858;8.530;2023-02-01T00:13:52;1.70;;;1.60;;
45650;SDS011;31365;48.858;8.530;2023-02-01T00:16:22;2.33;;;1.40;;
45650;SDS011;31365;48.858;8.530;2023-02-01T00:18:56;1.70;;;1.50;;
45650;SDS011;31365;48.858;8.530;2023-02-01T00:21:29;2.25;;;2.05;;
45650;SDS011;31365;48.858;8.530;2023-02-01T00:23:59;2.63;;;2.33;;
45650;SDS011;31365;48.858;8.530;2023-02-01T00:26:31;2.63;;;2.42;;
45650;SDS011;31365;48.858;8.530;2023-02-01T00:29:03;1.40;;;1.30;;
45650;SDS011;31365;48.858;8.530;2023-02-01T00:31:34;1.98;;;1.83;;
45650;SDS011;31365;48.858;8.530;2023-02-01T00:34:04;1.90;;;1.75;;
45650;SDS011;31365;48.858;8.530;2023-02-01T00:36:35;2.00;;;1.70;;
45650;SDS011;31365;48.858;8.530;2023-02-01T00:39:03;2.25;;;1.67;;
45650;SDS011;31365;48.858;8.530;2023-02-01T00:41:31;1.17;;;1.08;;
45650;SDS011;31365;48.858;8.530;2023-02-01T00:44:00;1.58;;;1.40;;
45650;SDS011;31365;48.858;8.530;2023-02-01T00:46:30;1.33;;;1.20;;
45650;SDS011;31365;48.858;8.530;2023-02-01T00:49:00;1.10;;;1.00;;
45650;SDS011;31365;48.858;8.530;2023-02-01T00:51:30;1.35;;;1.15;;
45650;SDS011;31365;48.858;8.530;2023-02-01T00:53:59;1.35;;;1.20;;
45650;SDS011;31365;48.858;8.530;2023-02-01T00:56:28;1.38;;;1.27;;
45650;SDS011;31365;48.858;8.530;2023-02-01T00:58:58;2.15;;;1.73;;
45650;SDS011;31365;48.858;8.530;2023-02-01T01:01:26;1.50;;;1.40;;
45650;SDS011;31365;48.858;8.530;2023-02-01T01:03:55;1.70;;;1.45;;
45650;SDS011;31365;48.858;8.530;2023-02-01T01:06:26;1.93;;;1.70;;
45650;SDS011;31365;48.858;8.530;2023-02-01T01:08:59;2.40;;;1.75;;
45650;SDS011;31365;48.858;8.530;2023-02-01T01:11:32;1.33;;;1.20;;
45650;SDS011;31365;48.858;8.530;2023-02-01T01:14:04;1.98;;;1.45;;
45650;SDS011;31365;48.858;8.530;2023-02-01T01:16:35;1.90;;;1.35;;
45650;SDS011;31365;48.858;8.530;2023-02-01T01:19:03;1.85;;;1.30;;
45650;SDS011;31365;48.858;8.530;2023-02-01T01:21:33;2.00;;;1.50;;
45650;SDS011;31365;48.858;8.530;2023-02-01T01:24:03;1.73;;;1.48;;
45650;SDS011;31365;48.858;8.530;2023-02-01T01:26:32;1.38;;;1.20;;
45650;SDS011;31365;48.858;8.530;2023-02-01T01:29:01;1.60;;;1.20;;
45650;SDS011;31365;48.858;8.530;2023-02-01T01:31:31;1.60;;;1.20;;
45650;SDS011;31365;48.858;8.530;2023-02-01T01:33:59;1.65;;;1.20;;
45650;SDS011;31365;48.858;8.530;2023-02-01T01:36:29;1.30;;;1.20;;
45650;SDS011;31365;48.858;8.530;2023-02-01T01:38:57;1.40;;;1.30;;
45650;SDS011;31365;48.858;8.530;2023-02-01T01:41:28;1.52;;;1.20;;
45650;SDS011;31365;48.858;8.530;2023-02-01T01:47:23;1.35;;;1.25;;
45650;SDS011;31365;48.858;8.530;2023-02-01T01:49:54;1.50;;;1.40;;
45650;SDS011;31365;48.858;8.530;2023-02-01T01:52:23;1.50;;;1.30;;
45650;SDS011;31365;48.858;8.530;2023-02-01T01:54:52;1.85;;;1.10;;
45650;SDS011;31365;48.858;8.530;2023-02-01T01:57:24;1.30;;;1.20;;
45650;SDS011;31365;48.858;8.530;2023-02-01T01:59:59;1.73;;;1.30;;
45650;SDS011;31365;48.858;8.530;2023-02-01T02:02:38;1.20;;;1.10;;
45650;SDS011;31365;48.858;8.530;2023-02-01T02:05:13;1.30;;;1.20;;
45650;SDS011;31365;48.858;8.530;2023-02-01T02:07:45;1.40;;;1.30;;
45650;SDS011;31365;48.858;8.530;2023-02-01T02:10:19;1.40;;;1.10;;
45650;SDS011;31365;48.858;8.530;2023-02-01T02:13:09;1.20;;;1.10;;
45650;SDS011;31365;48.858;8.530;2023-02-01T02:15:41;1.27;;;1.10;;
45650;SDS011;31365;48.858;8.530;2023-02-01T02:18:19;1.23;;;1.10;;
45650;SDS011;31365;48.858;8.530;2023-02-01T02:21:02;1.15;;;1.05;;
45650;SDS011;31365;48.858;8.530;2023-02-01T02:23:53;1.30;;;1.10;;
45650;SDS011;31365;48.858;8.530;2023-02-01T02:27:10;1.30;;;1.20;;
45650;SDS011;31365;48.858;8.530;2023-02-01T02:30:02;1.20;;;1.10;;
45650;SDS011;31365;48.858;8.530;2023-02-01T02:36:22;0.93;;;0.93;;
45650;SDS011;31365;48.858;8.530;2023-02-01T02:39:04;1.42;;;1.02;;
45650;SDS011;31365;48.858;8.530;2023-02-01T02:41:46;1.13;;;1.02;;
45650;SDS011;31365;48.858;8.530;2023-02-01T02:44:58;1.15;;;1.02;;
45650;SDS011;31365;48.858;8.530;2023-02-01T02:47:54;1.30;;;1.20;;
45650;SDS011;31365;48.858;8.530;2023-02-01T02:50:32;1.15;;;1.00;;
45650;SDS011;31365;48.858;8.530;2023-02-01T02:53:27;1.10;;;1.00;;
45650;SDS011;31365;48.858;8.530;2023-02-01T02:56:20;0.90;;;0.90;;
45650;SDS011;31365;48.858;8.530;2023-02-01T02:59:09;1.05;;;0.80;;
45650;SDS011;31365;48.858;8.530;2023-02-01T03:02:06;1.02;;;0.90;;
45650;SDS011;31365;48.858;8.530;2023-02-01T03:04:54;1.00;;;0.90;;
45650;SDS011;31365;48.858;8.530;2023-02-01T03:10:32;1.00;;;0.90;;
45650;SDS011;31365;48.858;8.530;2023-02-01T03:13:28;1.20;;;1.10;;
45650;SDS011;31365;48.858;8.530;2023-02-01T03:16:06;0.70;;;0.70;;
45650;SDS011;31365;48.858;8.530;2023-02-01T03:18:45;1.13;;;1.00;;
45650;SDS011;31365;48.858;8.530;2023-02-01T03:21:23;1.10;;;1.00;;
45650;SDS011;31365;48.858;8.530;2023-02-01T03:23:58;1.00;;;1.00;;
45650;SDS011;31365;48.858;8.530;2023-02-01T03:26:36;0.98;;;0.80;;
45650;SDS011;31365;48.858;8.530;2023-02-01T03:29:14;1.30;;;0.90;;
45650;SDS011;31365;48.858;8.530;2023-02-01T03:31:48;0.77;;;0.77;;
45650;SDS011;31365;48.858;8.530;2023-02-01T03:34:18;1.05;;;0.95;;
45650;SDS011;31365;48.858;8.530;2023-02-01T03:36:48;1.50;;;1.00;;
45650;SDS011;31365;48.858;8.530;2023-02-01T03:39:20;1.17;;;1.08;;
45650;SDS011;31365;48.858;8.530;2023-02-01T03:41:58;1.30;;;1.20;;
45650;SDS011;31365;48.858;8.530;2023-02-01T03:44:32;2.95;;;1.60;;
45650;SDS011;31365;48.858;8.530;2023-02-01T03:47:06;1.13;;;1.00;;
45650;SDS011;31365;48.858;8.530;2023-02-01T03:49:42;1.80;;;1.20;;
45650;SDS011;31365;48.858;8.530;2023-02-01T03:52:16;1.47;;;1.10;;
45650;SDS011;31365;48.858;8.530;2023-02-01T03:54:49;1.10;;;1.00;;
45650;SDS011;31365;48.858;8.530;2023-02-01T03:57:22;1.20;;;1.00;;
45650;SDS011;31365;48.858;8.530;2023-02-01T04:00:03;1.05;;;1.00;;
45650;SDS011;31365;48.858;8.530;2023-02-01T04:02:41;2.60;;;2.10;;
45650;SDS011;31365;48.858;8.530;2023-02-01T04:05:10;2.73;;;2.40;;
45650;SDS011;31365;48.858;8.530;2023-02-01T04:07:45;1.52;;;1.42;;
45650;SDS011;31365;48.858;8.530;2023-02-01T04:10:14;1.30;;;1.20;;
45650;SDS011;31365;48.858;8.530;2023-02-01T04:12:46;1.05;;;0.95;;
45650;SDS011;31365;48.858;8.530;2023-02-01T04:15:14;0.95;;;0.80;;
45650;SDS011;31365;48.858;8.530;2023-02-01T04:17:43;1.10;;;1.00;;
45650;SDS011;31365;48.858;8.530;2023-02-01T04:20:11;1.65;;;0.98;;
45650;SDS011;31365;48.858;8.530;2023-02-01T04:22:40;1.13;;;0.98;;
45650;SDS011;31365;48.858;8.530;2023-02-01T04:25:09;0.95;;;0.93;;
45650;SDS011;31365;48.858;8.530;2023-02-01T04:27:37;1.77;;;1.67;;
45650;SDS011;31365;48.858;8.530;2023-02-01T04:30:11;1.40;;;1.27;;
45650;SDS011;31365;48.858;8.530;2023-02-01T04:32:40;1.35;;;1.08;;
45650;SDS011;31365;48.858;8.530;2023-02-01T04:35:09;1.50;;;1.10;;
45650;SDS011;31365;48.858;8.530;2023-02-01T04:37:38;1.90;;;1.15;;
45650;SDS011;31365;48.858;8.530;2023-02-01T04:40:07;1.35;;;1.25;;
45650;SDS011;31365;48.858;8.530;2023-02-01T04:42:37;1.67;;;1.35;;
45650;SDS011;31365;48.858;8.530;2023-02-01T04:45:06;2.33;;;1.30;;
45650;SDS011;31365;48.858;8.530;2023-02-01T04:47:37;2.33;;;1.42;;
45650;SDS011;31365;48.858;8.530;2023-02-01T04:50:06;1.30;;;1.10;;
45650;SDS011;31365;48.858;8.530;2023-02-01T04:52:37;2.33;;;1.30;;
45650;SDS011;31365;48.858;8.530;2023-02-01T04:55:05;2.60;;;1.13;;
45650;SDS011;31365;48.858;8.530;2023-02-01T04:57:35;1.27;;;1.05;;
45650;SDS011;31365;48.858;8.530;2023-02-01T05:00:05;1.27;;;1.00;;
45650;SDS011;31365;48.858;8.530;2023-02-01T05:02:37;1.73;;;1.13;;
45650;SDS011;31365;48.858;8.530;2023-02-01T05:05:06;2.50;;;1.40;;
45650;SDS011;31365;48.858;8.530;2023-02-01T05:07:36;1.50;;;1.00;;
45650;SDS011;31365;48.858;8.530;2023-02-01T05:10:04;1.25;;;0.98;;
45650;SDS011;31365;48.858;8.530;2023-02-01T05:12:34;1.30;;;1.20;;
45650;SDS011;31365;48.858;8.530;2023-02-01T05:15:20;1.35;;;1.25;;
45650;SDS011;31365;48.858;8.530;2023-02-01T05:17:50;1.23;;;1.00;;
45650;SDS011;31365;48.858;8.530;2023-02-01T05:20:18;1.00;;;0.90;;
45650;SDS011;31365;48.858;8.530;2023-02-01T05:22:47;0.80;;;0.80;;
45650;SDS011;31365;48.858;8.530;2023-02-01T05:25:16;1.50;;;1.05;;
45650;SDS011;31365;48.858;8.530;2023-02-01T05:27:45;1.60;;;1.27;;
45650;SDS011;31365;48.858;8.530;2023-02-01T05:30:14;1.20;;;1.00;;
45650;SDS011;31365;48.858;8.530;2023-02-01T05:32:43;1.27;;;1.17;;
45650;SDS011;31365;48.858;8.530;2023-02-01T05:35:13;1.42;;;1.08;;
45650;SDS011;31365;48.858;8.530;2023-02-01T05:37:41;1.92;;;1.40;;
45650;SDS011;31365;48.858;8.530;2023-02-01T05:40:10;1.70;;;1.60;;
45650;SDS011;31365;48.858;8.530;2023-02-01T05:42:39;2.08;;;1.67;;
45650;SDS011;31365;48.858;8.530;2023-02-01T05:45:07;2.53;;;1.80;;
45650;SDS011;31365;48.858;8.530;2023-02-01T05:47:37;2.50;;;1.65;;
45650;SDS011;31365;48.858;8.530;2023-02-01T05:50:06;2.45;;;2.25;;
45650;SDS011;31365;48.858;8.530;2023-02-01T05:52:36;2.33;;;2.13;;
45650;SDS011;31365;48.858;8.530;2023-02-01T05:55:05;2.95;;;2.40;;
45650;SDS011;31365;48.858;8.530;2023-02-01T05:57:34;4.05;;;2.50;;
45650;SDS011;31365;48.858;8.530;2023-02-01T06:00:03;3.58;;;3.05;;
45650;SDS011;31365;48.858;8.530;2023-02-01T06:02:37;4.07;;;2.67;;
45650;SDS011;31365;48.858;8.530;2023-02-01T06:05:07;3.78;;;3.28;;
45650;SDS011;31365;48.858;8.530;2023-02-01T06:07:37;4.20;;;2.90;;
45650;SDS011;31365;48.858;8.530;2023-02-01T06:10:06;3.30;;;2.70;;
45650;SDS011;31365;48.858;8.530;2023-02-01T06:12:35;4.72;;;3.25;;
45650;SDS011;31365;48.858;8.530;2023-02-01T06:15:04;4.20;;;3.60;;
45650;SDS011;31365;48.858;8.530;2023-02-01T06:17:35;5.22;;;3.70;;
45650;SDS011;31365;48.858;8.530;2023-02-01T06:20:04;6.00;;;4.38;;
45650;SDS011;31365;48.858;8.530;2023-02-01T06:22:36;7.13;;;5.10;;
45650;SDS011;31365;48.858;8.530;2023-02-01T06:25:06;9.68;;;7.13;;
45650;SDS011;31365;48.858;8.530;2023-02-01T06:27:36;8.75;;;5.03;;
45650;SDS011;31365;48.858;8.530;2023-02-01T06:30:05;11.98;;;8.27;;
45650;SDS011;31365;48.858;8.530;2023-02-01T06:32:36;13.02;;;8.98;;
45650;SDS011;31365;48.858;8.530;2023-02-01T06:35:06;7.68;;;5.80;;
45650;SDS011;31365;48.858;8.530;2023-02-01T06:37:39;8.05;;;6.15;;
45650;SDS011;31365;48.858;8.530;2023-02-01T06:40:07;11.35;;;7.70;;
45650;SDS011;31365;48.858;8.530;2023-02-01T06:42:37;12.07;;;9.23;;
45650;SDS011;31365;48.858;8.530;2023-02-01T06:45:06;6.93;;;5.82;;
45650;SDS011;31365;48.858;8.530;2023-02-01T06:47:34;9.40;;;7.15;;
45650;SDS011;31365;48.858;8.530;2023-02-01T06:50:03;7.05;;;5.28;;
45650;SDS011;31365;48.858;8.530;2023-02-01T06:52:32;7.18;;;5.03;;
45650;SDS011;31365;48.858;8.530;2023-02-01T06:55:03;6.27;;;4.00;;
45650;SDS011;31365;48.858;8.530;2023-02-01T06:57:32;7.30;;;4.60;;
45650;SDS011;31365;48.858;8.530;2023-02-01T07:00:02;7.38;;;4.57;;
45650;SDS011;31365;48.858;8.530;2023-02-01T07:02:31;4.80;;;3.65;;
45650;SDS011;31365;48.858;8.530;2023-02-01T07:04:59;5.25;;;3.40;;
45650;SDS011;31365;48.858;8.530;2023-02-01T07:07:28;5.20;;;3.10;;
45650;SDS011;31365;48.858;8.530;2023-02-01T07:09:56;8.10;;;4.28;;
45650;SDS011;31365;48.858;8.530;2023-02-01T07:12:26;6.13;;;4.10;;
45650;SDS011;31365;48.858;8.530;2023-02-01T07:14:54;6.07;;;3.70;;
45650;SDS011;31365;48.858;8.530;2023-02-01T07:17:23;4.60;;;3.00;;
45650;SDS011;31365;48.858;8.530;2023-02-01T07:19:51;7.88;;;3.80;;
45650;SDS011;31365;48.858;8.530;2023-02-01T07:22:19;8.30;;;4.22;;
45650;SDS011;31365;48.858;8.530;2023-02-01T07:24:48;5.38;;;3.20;;
45650;SDS011;31365;48.858;8.530;2023-02-01T07:27:16;5.30;;;3.35;;
45650;SDS011;31365;48.858;8.530;2023-02-01T07:29:48;5.88;;;3.50;;
45650;SDS011;31365;48.858;8.530;2023-02-01T07:32:18;6.70;;;3.90;;
45650;SDS011;31365;48.858;8.530;2023-02-01T07:34:46;6.67;;;3.70;;
45650;SDS011;31365;48.858;8.530;2023-02-01T07:37:15;6.85;;;3.85;;
45650;SDS011;31365;48.858;8.530;2023-02-01T07:39:44;5.32;;;3.78;;
45650;SDS011;31365;48.858;8.530;2023-02-01T07:42:13;5.75;;;3.38;;
45650;SDS011;31365;48.858;8.530;2023-02-01T07:44:41;6.83;;;3.53;;
45650;SDS011;31365;48.858;8.530;2023-02-01T07:47:11;6.72;;;3.45;;
45650;SDS011;31365;48.858;8.530;2023-02-01T07:49:39;6.68;;;3.60;;
45650;SDS011;31365;48.858;8.530;2023-02-01T07:52:08;7.50;;;3.20;;
45650;SDS011;31365;48.858;8.530;2023-02-01T07:54:37;8.05;;;3.15;;
45650;SDS011;31365;48.858;8.530;2023-02-01T07:57:05;6.53;;;3.40;;
45650;SDS011;31365;48.858;8.530;2023-02-01T07:59:35;4.90;;;3.00;;
45650;SDS011;31365;48.858;8.530;2023-02-01T08:02:25;7.15;;;3.67;;
45650;SDS011;31365;48.858;8.530;2023-02-01T08:04:53;4.82;;;3.08;;
45650;SDS011;31365;48.858;8.530;2023-02-01T08:07:22;6.35;;;3.13;;
45650;SDS011;31365;48.858;8.530;2023-02-01T08:09:50;7.20;;;3.37;;
45650;SDS011;31365;48.858;8.530;2023-02-01T08:12:19;9.15;;;3.90;;
45650;SDS011;31365;48.858;8.530;2023-02-01T08:14:47;8.05;;;3.42;;
45650;SDS011;31365;48.858;8.530;2023-02-01T08:17:15;7.68;;;3.63;;
45650;SDS011;31365;48.858;8.530;2023-02-01T08:19:45;7.13;;;3.90;;
45650;SDS011;31365;48.858;8.530;2023-02-01T08:22:13;11.10;;;6.10;;
45650;SDS011;31365;48.858;8.530;2023-02-01T08:24:41;7.85;;;4.18;;
45650;SDS011;31365;48.858;8.530;2023-02-01T08:27:10;8.05;;;4.82;;
45650;SDS011;31365;48.858;8.530;2023-02-01T08:29:39;7.40;;;4.25;;
45650;SDS011;31365;48.858;8.530;2023-02-01T08:32:07;9.10;;;4.00;;
45650;SDS011;31365;48.858;8.530;2023-02-01T08:34:35;8.35;;;5.22;;
45650;SDS011;31365;48.858;8.530;2023-02-01T08:37:05;8.88;;;5.30;;
45650;SDS011;31365;48.858;8.530;2023-02-01T08:39:34;7.97;;;3.75;;
45650;SDS011;31365;48.858;8.530;2023-02-01T08:42:03;7.53;;;3.20;;
45650;SDS011;31365;48.858;8.530;2023-02-01T08:44:49;10.73;;;5.90;;
45650;SDS011;31365;48.858;8.530;2023-02-01T08:47:18;10.30;;;5.23;;
45650;SDS011;31365;48.858;8.530;2023-02-01T08:49:46;9.60;;;4.72;;
45650;SDS011;31365;48.858;8.530;2023-02-01T08:52:16;9.80;;;5.72;;
45650;SDS011;31365;48.858;8.530;2023-02-01T08:54:44;7.80;;;3.97;;
45650;SDS011;31365;48.858;8.530;2023-02-01T08:57:13;9.73;;;5.32;;
45650;SDS011;31365;48.858;8.530;2023-02-01T08:59:41;8.02;;;3.13;;
45650;SDS011;31365;48.858;8.530;2023-02-01T09:02:11;8.88;;;4.20;;
45650;SDS011;31365;48.858;8.530;2023-02-01T09:04:41;11.80;;;5.30;;
45650;SDS011;31365;48.858;8.530;2023-02-01T09:07:10;9.85;;;4.72;;
45650;SDS011;31365;48.858;8.530;2023-02-01T09:09:41;8.27;;;4.50;;
45650;SDS011;31365;48.858;8.530;2023-02-01T09:12:10;11.73;;;5.13;;
45650;SDS011;31365;48.858;8.530;2023-02-01T09:14:39;11.75;;;5.00;;
45650;SDS011;31365;48.858;8.530;2023-02-01T09:17:08;12.60;;;6.43;;
45650;SDS011;31365;48.858;8.530;2023-02-01T09:19:36;11.67;;;6.67;;
45650;SDS011;31365;48.858;8.530;2023-02-01T09:22:08;12.32;;;7.28;;
45650;SDS011;31365;48.858;8.530;2023-02-01T09:24:36;12.32;;;6.80;;
45650;SDS011;31365;48.858;8.530;2023-02-01T09:27:06;7.53;;;3.15;;
45650;SDS011;31365;48.858;8.530;2023-02-01T09:29:35;12.98;;;7.25;;
45650;SDS011;31365;48.858;8.530;2023-02-01T09:32:03;8.80;;;4.40;;
45650;SDS011;31365;48.858;8.530;2023-02-01T09:34:33;10.13;;;4.10;;
45650;SDS011;31365;48.858;8.530;2023-02-01T09:37:02;7.07;;;2.88;;
45650;SDS011;31365;48.858;8.530;2023-02-01T09:39:30;8.60;;;3.70;;
45650;SDS011;31365;48.858;8.530;2023-02-01T09:42:02;8.10;;;3.50;;
45650;SDS011;31365;48.858;8.530;2023-02-01T09:44:54;9.05;;;3.80;;
45650;SDS011;31365;48.858;8.530;2023-02-01T09:47:42;8.02;;;3.65;;
45650;SDS011;31365;48.858;8.530;2023-02-01T09:50:17;9.97;;;4.40;;
45650;SDS011;31365;48.858;8.530;2023-02-01T09:52:57;13.52;;;5.07;;
45650;SDS011;31365;48.858;8.530;2023-02-01T09:55:32;8.23;;;4.70;;
45650;SDS011;31365;48.858;8.530;2023-02-01T09:58:11;10.45;;;4.35;;
45650;SDS011;31365;48.858;8.530;2023-02-01T10:00:49;9.82;;;5.63;;
45650;SDS011;31365;48.858;8.530;2023-02-01T10:03:22;8.52;;;3.50;;
45650;SDS011;31365;48.858;8.530;2023-02-01T10:05:59;8.38;;;3.67;;
45650;SDS011;31365;48.858;8.530;2023-02-01T10:08:53;11.20;;;5.22;;
45650;SDS011;31365;48.858;8.530;2023-02-01T10:11:38;12.88;;;6.47;;
45650;SDS011;31365;48.858;8.530;2023-02-01T10:17:30;8.00;;;4.13;;
45650;SDS011;31365;48.858;8.530;2023-02-01T10:20:25;10.13;;;5.65;;
45650;SDS011;31365;48.858;8.530;2023-02-01T10:23:06;8.55;;;4.22;;
45650;SDS011;31365;48.858;8.530;2023-02-01T10:26:29;8.93;;;3.95;;
45650;SDS011;31365;48.858;8.530;2023-02-01T10:29:04;7.53;;;3.60;;
45650;SDS011;31365;48.858;8.530;2023-02-01T10:31:45;8.68;;;3.40;;
45650;SDS011;31365;48.858;8.530;2023-02-01T10:34:15;8.50;;;3.08;;
45650;SDS011;31365;48.858;8.530;2023-02-01T10:36:52;7.90;;;3.50;;
45650;SDS011;31365;48.858;8.530;2023-02-01T10:39:23;6.68;;;3.03;;
45650;SDS011;31365;48.858;8.530;2023-02-01T10:41:52;11.27;;;4.10;;
45650;SDS011;31365;48.858;8.530;2023-02-01T10:44:24;7.20;;;3.28;;
45650;SDS011;31365;48.858;8.530;2023-02-01T10:46:57;6.78;;;3.60;;
45650;SDS011;31365;48.858;8.530;2023-02-01T10:49:26;7.07;;;3.30;;
45650;SDS011;31365;48.858;8.530;2023-02-01T10:52:06;8.13;;;3.70;;
45650;SDS011;31365;48.858;8.530;2023-02-01T10:54:42;9.15;;;3.38;;
45650;SDS011;31365;48.858;8.530;2023-02-01T10:57:17;6.47;;;3.28;;
45650;SDS011;31365;48.858;8.530;2023-02-01T10:59:49;5.93;;;2.90;;
45650;SDS011;31365;48.858;8.530;2023-02-01T11:02:23;9.05;;;3.70;;
45650;SDS011;31365;48.858;8.530;2023-02-01T11:05:00;7.50;;;3.20;;
45650;SDS011;31365;48.858;8.530;2023-02-01T11:07:30;9.75;;;3.53;;
45650;SDS011;31365;48.858;8.530;2023-02-01T11:10:00;7.50;;;3.58;;
45650;SDS011;31365;48.858;8.530;2023-02-01T11:12:29;7.35;;;3.38;;
45650;SDS011;31365;48.858;8.530;2023-02-01T11:15:03;8.15;;;3.20;;
45650;SDS011;31365;48.858;8.530;2023-02-01T11:17:44;7.38;;;3.20;;
45650;SDS011;31365;48.858;8.530;2023-02-01T11:20:18;6.20;;;2.67;;
45650;SDS011;31365;48.858;8.530;2023-02-01T11:23:10;7.57;;;3.10;;
45650;SDS011;31365;48.858;8.530;2023-02-01T11:25:47;7.78;;;3.15;;
45650;SDS011;31365;48.858;8.530;2023-02-01T11:28:20;8.00;;;3.13;;
45650;SDS011;31365;48.858;8.530;2023-02-01T11:30:53;8.23;;;3.30;;
45650;SDS011;31365;48.858;8.530;2023-02-01T11:33:29;6.70;;;2.97;;
45650;SDS011;31365;48.858;8.530;2023-02-01T11:36:05;8.75;;;3.13;;
45650;SDS011;31365;48.858;8.530;2023-02-01T11:38:40;8.40;;;3.20;;
45650;SDS011;31365;48.858;8.530;2023-02-01T11:41:21;8.00;;;3.20;;
45650;SDS011;31365;48.858;8.530;2023-02-01T11:43:54;8.40;;;3.58;;
45650;SDS011;31365;48.858;8.530;2023-02-01T11:46:26;7.60;;;3.70;;
45650;SDS011;31365;48.858;8.530;2023-02-01T11:49:13;10.55;;;5.47;;
45650;SDS011;31365;48.858;8.530;2023-02-01T11:51:51;12.75;;;8.43;;
45650;SDS011;31365;48.858;8.530;2023-02-01T11:57:41;9.85;;;3.97;;
45650;SDS011;31365;48.858;8.530;2023-02-01T12:00:28;7.97;;;3.33;;
45650;SDS011;31365;48.858;8.530;2023-02-01T12:06:47;8.65;;;3.30;;
45650;SDS011;31365;48.858;8.530;2023-02-01T12:09:21;10.13;;;3.45;;
45650;SDS011;31365;48.858;8.530;2023-02-01T12:12:08;11.60;;;6.57;;
45650;SDS011;31365;48.858;8.530;2023-02-01T12:14:56;9.45;;;3.17;;
45650;SDS011;31365;48.858;8.530;2023-02-01T12:17:57;8.27;;;3.88;;
45650;SDS011;31365;48.858;8.530;2023-02-01T12:20:58;7.15;;;3.20;;
45650;SDS011;31365;48.858;8.530;2023-02-01T12:23:46;6.97;;;3.40;;
45650;SDS011;31365;48.858;8.530;2023-02-01T12:26:38;6.22;;;3.55;;
45650;SDS011;31365;48.858;8.530;2023-02-01T12:29:20;8.68;;;3.83;;
45650;SDS011;31365;48.858;8.530;2023-02-01T12:32:29;6.93;;;3.25;;
45650;SDS011;31365;48.858;8.530;2023-02-01T12:38:37;6.97;;;3.47;;
45650;SDS011;31365;48.858;8.530;2023-02-01T12:44:19;8.03;;;4.10;;
45650;SDS011;31365;48.858;8.530;2023-02-01T12:46:57;5.93;;;3.30;;
45650;SDS011;31365;48.858;8.530;2023-02-01T12:49:38;8.77;;;3.40;;
45650;SDS011;31365;48.858;8.530;2023-02-01T12:52:19;9.80;;;3.57;;
45650;SDS011;31365;48.858;8.530;2023-02-01T12:55:02;6.88;;;3.75;;
45650;SDS011;31365;48.858;8.530;2023-02-01T12:57:44;9.15;;;3.63;;
45650;SDS011;31365;48.858;8.530;2023-02-01T13:00:20;8.73;;;4.03;;
45650;SDS011;31365;48.858;8.530;2023-02-01T13:03:00;6.47;;;3.17;;
45650;SDS011;31365;48.858;8.530;2023-02-01T13:05:42;7.72;;;3.45;;
45650;SDS011;31365;48.858;8.530;2023-02-01T13:08:21;6.57;;;3.20;;
45650;SDS011;31365;48.858;8.530;2023-02-01T13:10:58;11.00;;;6.90;;
45650;SDS011;31365;48.858;8.530;2023-02-01T13:13:34;7.72;;;3.55;;
45650;SDS011;31365;48.858;8.530;2023-02-01T13:16:15;11.60;;;6.25;;
45650;SDS011;31365;48.858;8.530;2023-02-01T13:18:53;8.97;;;3.53;;
45650;SDS011;31365;48.858;8.530;2023-02-01T13:21:31;16.40;;;12.43;;
45650;SDS011;31365;48.858;8.530;2023-02-01T13:24:18;11.40;;;4.22;;
45650;SDS011;31365;48.858;8.530;2023-02-01T13:26:59;14.38;;;9.98;;
45650;SDS011;31365;48.858;8.530;2023-02-01T13:29:28;10.60;;;4.30;;
45650;SDS011;31365;48.858;8.530;2023-02-01T13:32:12;10.68;;;5.35;;
45650;SDS011;31365;48.858;8.530;2023-02-01T13:42:05;9.38;;;3.97;;
45650;SDS011;31365;48.858;8.530;2023-02-01T13:44:45;10.90;;;4.45;;
45650;SDS011;31365;48.858;8.530;2023-02-01T13:47:22;9.82;;;3.88;;
45650;SDS011;31365;48.858;8.530;2023-02-01T13:49:56;9.80;;;3.73;;
45650;SDS011;31365;48.858;8.530;2023-02-01T13:52:32;10.05;;;4.45;;
45650;SDS011;31365;48.858;8.530;2023-02-01T13:55:16;8.70;;;4.15;;
45650;SDS011;31365;48.858;8.530;2023-02-01T13:58:01;13.30;;;6.93;;
45650;SDS011;31365;48.858;8.530;2023-02-01T14:00:38;41.50;;;27.77;;
45650;SDS011;31365;48.858;8.530;2023-02-01T14:03:14;9.15;;;4.03;;
45650;SDS011;31365;48.858;8.530;2023-02-01T14:09:12;7.38;;;3.30;;
45650;SDS011;31365;48.858;8.530;2023-02-01T14:15:25;8.30;;;3.80;;
45650;SDS011;31365;48.858;8.530;2023-02-01T14:17:55;8.38;;;3.50;;
45650;SDS011;31365;48.858;8.530;2023-02-01T14:23:21;9.20;;;3.60;;
45650;SDS011;31365;48.858;8.530;2023-02-01T14:26:01;9.67;;;3.67;;
45650;SDS011;31365;48.858;8.530;2023-02-01T14:28:41;11.23;;;3.85;;
45650;SDS011;31365;48.858;8.530;2023-02-01T14:31:18;7.77;;;3.27;;
45650;SDS011;31365;48.858;8.530;2023-02-01T14:34:21;7.37;;;3.40;;
45650;SDS011;31365;48.858;8.530;2023-02-01T14:37:00;7.95;;;3.42;;
45650;SDS011;31365;48.858;8.530;2023-02-01T14:39:36;8.25;;;3.47;;
45650;SDS011;31365;48.858;8.530;2023-02-01T14:42:21;8.23;;;3.42;;
45650;SDS011;31365;48.858;8.530;2023-02-01T14:44:54;7.70;;;3.40;;
45650;SDS011;31365;48.858;8.530;2023-02-01T14:47:46;9.77;;;3.70;;
45650;SDS011;31365;48.858;8.530;2023-02-01T14:50:18;9.20;;;3.60;;
45650;SDS011;31365;48.858;8.530;2023-02-01T14:53:19;10.57;;;4.53;;
45650;SDS011;31365;48.858;8.530;2023-02-01T14:55:53;9.57;;;3.78;;
45650;SDS011;31365;48.858;8.530;2023-02-01T14:58:32;8.55;;;3.30;;
45650;SDS011;31365;48.858;8.530;2023-02-01T15:01:19;10.32;;;3.97;;
45650;SDS011;31365;48.858;8.530;2023-02-01T15:03:53;8.65;;;3.42;;
45650;SDS011;31365;48.858;8.530;2023-02-01T15:06:30;11.90;;;3.83;;
45650;SDS011;31365;48.858;8.530;2023-02-01T15:09:07;8.98;;;4.00;;
45650;SDS011;31365;48.858;8.530;2023-02-01T15:11:54;9.75;;;3.70;;
45650;SDS011;31365;48.858;8.530;2023-02-01T15:14:27;9.07;;;3.17;;
45650;SDS011;31365;48.858;8.530;2023-02-01T15:16:58;13.65;;;6.53;;
45650;SDS011;31365;48.858;8.530;2023-02-01T15:19:28;9.65;;;3.83;;
45650;SDS011;31365;48.858;8.530;2023-02-01T15:21:58;8.48;;;3.85;;
45650;SDS011;31365;48.858;8.530;2023-02-01T15:24:28;12.18;;;6.35;;
45650;SDS011;31365;48.858;8.530;2023-02-01T15:27:02;7.72;;;3.30;;
45650;SDS011;31365;48.858;8.530;2023-02-01T15:29:32;9.02;;;3.35;;
45650;SDS011;31365;48.858;8.530;2023-02-01T15:32:01;8.55;;;3.92;;
45650;SDS011;31365;48.858;8.530;2023-02-01T15:34:45;9.27;;;3.33;;
45650;SDS011;31365;48.858;8.530;2023-02-01T15:37:16;9.82;;;3.22;;
45650;SDS011;31365;48.858;8.530;2023-02-01T15:42:49;9.67;;;4.30;;
45650;SDS011;31365;48.858;8.530;2023-02-01T15:45:21;8.38;;;3.60;;
45650;SDS011;31365;48.858;8.530;2023-02-01T15:47:54;14.93;;;7.85;;
45650;SDS011;31365;48.858;8.530;2023-02-01T15:50:27;7.55;;;3.38;;
45650;SDS011;31365;48.858;8.530;2023-02-01T15:52:58;7.90;;;3.72;;
45650;SDS011;31365;48.858;8.530;2023-02-01T15:55:30;8.57;;;3.00;;
45650;SDS011;31365;48.858;8.530;2023-02-01T15:58:09;8.13;;;3.20;;
45650;SDS011;31365;48.858;8.530;2023-02-01T16:00:46;8.73;;;3.28;;
45650;SDS011;31365;48.858;8.530;2023-02-01T16:03:25;8.52;;;3.03;;
45650;SDS011;31365;48.858;8.530;2023-02-01T16:06:04;8.02;;;3.22;;
45650;SDS011;31365;48.858;8.530;2023-02-01T16:08:35;11.40;;;4.00;;
45650;SDS011;31365;48.858;8.530;2023-02-01T16:11:23;9.20;;;3.42;;
45650;SDS011;31365;48.858;8.530;2023-02-01T16:13:56;12.73;;;5.30;;
45650;SDS011;31365;48.858;8.530;2023-02-01T16:16:25;8.93;;;3.75;;